Time;durP1;ratioP1;P1;durP2;ratioP2;P2;SDS_P1;SDS_P2;PMS_P1;PMS_P2;Temp;Humidity;BMP_temperature;BMP_pressure;BME280_temperature;BME280_humidity;BME280_pressure;Samples;Min_cycle;Max_cycle;Signal;HPM_P1;HPM_P2
2024/01/28 00:00:46;;;;;;;28.58;10.13;;;3.00;99.90;;;;;;5056908;28;20039;-77
2024/01/28 00:03:12;;;;;;;29.60;10.05;;;2.90;99.90;;;;;;5055654;28;20040;-77
2024/01/28 00:05:38;;;;;;;25.92;10.45;;;2.90;99.90;;;;;;5061572;28;20017;-77
2024/01/28 00:08:05;;;;;;;21.45;9.82;;;2.90;99.90;;;;;;5065206;28;20475;-77
2024/01/28 00:10:30;;;;;;;24.00;10.57;;;2.80;99.90;;;;;;5058176;28;20041;-77
2024/01/28 00:12:56;;;;;;;26.88;10.35;;;2.80;99.90;;;;;;5052647;28;20435;-76
2024/01/28 00:15:22;;;;;;;28.33;10.90;;;2.80;99.90;;;;;;5053393;28;20434;-77
2024/01/28 00:17:48;;;;;;;25.08;10.13;;;2.80;99.90;;;;;;5066724;28;20055;-77
2024/01/28 00:20:13;;;;;;;25.98;10.23;;;2.80;99.90;;;;;;5067666;28;20522;-77
2024/01/28 00:22:39;;;;;;;22.33;10.20;;;2.70;99.90;;;;;;5059927;28;20245;-77
2024/01/28 00:25:05;;;;;;;21.98;10.15;;;2.70;99.90;;;;;;5053449;28;20025;-77
2024/01/28 00:27:30;;;;;;;22.70;9.60;;;2.70;99.90;;;;;;5053942;28;20500;-77
2024/01/28 00:29:56;;;;;;;23.02;10.80;;;2.70;99.90;;;;;;5057907;28;20025;-77
2024/01/28 00:32:21;;;;;;;25.42;10.32;;;2.60;99.90;;;;;;5054546;28;20439;-77
2024/01/28 00:34:47;;;;;;;29.95;11.07;;;2.60;99.90;;;;;;5062259;28;20419;-77
2024/01/28 00:37:13;;;;;;;24.95;9.75;;;2.60;99.90;;;;;;5066828;28;20116;-77
2024/01/28 00:39:39;;;;;;;25.95;11.15;;;2.50;99.90;;;;;;5052885;28;20036;-77
2024/01/28 00:42:05;;;;;;;22.45;10.88;;;2.50;99.90;;;;;;5066293;28;20042;-77
2024/01/28 00:44:31;;;;;;;28.20;11.27;;;2.50;99.90;;;;;;5054900;28;20484;-77
2024/01/28 00:47:00;;;;;;;23.27;10.95;;;2.50;99.90;;;;;;5055608;28;20024;-77
2024/01/28 00:49:31;;;;;;;30.95;12.18;;;2.50;99.90;;;;;;5057168;28;20540;-77
2024/01/28 00:51:57;;;;;;;31.63;11.75;;;2.50;99.90;;;;;;5053253;28;20021;-77
2024/01/28 00:54:23;;;;;;;28.92;12.35;;;2.50;99.90;;;;;;5060045;28;20031;-77
2024/01/28 00:56:50;;;;;;;27.77;12.40;;;2.50;99.90;;;;;;5059314;28;20065;-77
2024/01/28 00:59:15;;;;;;;29.63;12.90;;;2.40;99.90;;;;;;5054198;28;20086;-75
2024/01/28 01:01:41;;;;;;;33.15;12.75;;;2.40;99.90;;;;;;5051475;28;20460;-75
2024/01/28 01:04:06;;;;;;;24.30;12.38;;;2.40;99.90;;;;;;5063502;28;20017;-75
2024/01/28 01:06:32;;;;;;;25.98;12.15;;;2.40;99.90;;;;;;5065157;28;20382;-75
2024/01/28 01:08:58;;;;;;;32.25;12.73;;;2.40;99.90;;;;;;5063056;28;20078;-75
2024/01/28 01:11:23;;;;;;;28.45;12.85;;;2.40;99.90;;;;;;5056142;28;20021;-75
2024/01/28 01:13:52;;;;;;;32.40;13.07;;;2.40;99.90;;;;;;5067977;28;20601;-75
2024/01/28 01:16:18;;;;;;;35.15;13.48;;;2.30;99.90;;;;;;5069551;28;20087;-75
2024/01/28 01:18:44;;;;;;;31.35;12.95;;;2.30;99.90;;;;;;5070297;28;20035;-74
2024/01/28 01:21:09;;;;;;;27.73;12.35;;;2.30;99.90;;;;;;5070952;28;20055;-75
2024/01/28 01:23:35;;;;;;;30.08;13.20;;;2.30;99.90;;;;;;5062281;28;20513;-75
2024/01/28 01:26:00;;;;;;;30.13;12.85;;;2.30;99.90;;;;;;5056446;28;20027;-75
2024/01/28 01:28:32;;;;;;;28.73;12.55;;;2.30;99.90;;;;;;5069089;28;20461;-75
2024/01/28 01:30:58;;;;;;;31.88;12.65;;;2.30;99.90;;;;;;5066528;28;20027;-75
2024/01/28 01:33:24;;;;;;;32.25;13.38;;;2.20;99.90;;;;;;5058733;28;20009;-75
2024/01/28 01:35:50;;;;;;;31.63;13.43;;;2.20;99.90;;;;;;5051672;28;20426;-74
2024/01/28 01:38:15;;;;;;;33.97;12.50;;;2.20;99.90;;;;;;5053811;28;20025;-77
2024/01/28 01:40:41;;;;;;;28.13;13.23;;;2.30;99.90;;;;;;5050929;28;20078;-76
2024/01/28 01:43:10;;;;;;;27.70;12.75;;;2.20;99.90;;;;;;5056702;28;20009;-77
2024/01/28 01:45:41;;;;;;;26.13;13.38;;;2.30;99.90;;;;;;5064000;28;20351;-77
2024/01/28 01:48:12;;;;;;;32.17;13.30;;;2.30;99.90;;;;;;5064488;28;20024;-77
2024/01/28 01:50:41;;;;;;;26.50;12.38;;;2.20;99.90;;;;;;5058349;28;20047;-77
2024/01/28 01:53:09;;;;;;;31.30;12.70;;;2.20;99.90;;;;;;5056828;28;20070;-77
2024/01/28 01:55:35;;;;;;;27.80;11.27;;;2.20;99.90;;;;;;5062795;28;20020;-77
2024/01/28 01:58:02;;;;;;;31.52;12.38;;;2.20;99.90;;;;;;5064806;28;20025;-77
2024/01/28 02:00:28;;;;;;;29.50;12.13;;;2.20;99.90;;;;;;5052485;28;20481;-76
2024/01/28 02:02:54;;;;;;;28.35;11.93;;;2.30;99.90;;;;;;5055881;28;20384;-74
2024/01/28 02:05:19;;;;;;;26.63;12.50;;;2.30;99.90;;;;;;5057510;28;20044;-74
2024/01/28 02:07:45;;;;;;;31.58;12.45;;;2.30;99.90;;;;;;5052451;28;20035;-74
2024/01/28 02:10:11;;;;;;;31.52;12.65;;;2.30;99.90;;;;;;5059439;28;20328;-74
2024/01/28 02:12:37;;;;;;;33.05;11.88;;;2.30;99.90;;;;;;5064245;28;20029;-74
2024/01/28 02:15:06;;;;;;;22.23;11.23;;;2.30;99.90;;;;;;5050755;28;20491;-74
2024/01/28 02:17:33;;;;;;;24.67;10.80;;;2.30;99.90;;;;;;5052011;28;20096;-74
2024/01/28 02:19:59;;;;;;;29.90;11.80;;;2.30;99.90;;;;;;5052633;28;20049;-74
2024/01/28 02:22:24;;;;;;;32.60;11.93;;;2.30;99.90;;;;;;5050040;28;20036;-74
2024/01/28 02:24:51;;;;;;;24.20;10.88;;;2.30;99.90;;;;;;5061655;28;20033;-75
2024/01/28 02:27:16;;;;;;;33.78;12.48;;;2.30;99.90;;;;;;5055948;28;20036;-77
2024/01/28 02:29:42;;;;;;;29.33;12.00;;;2.20;99.90;;;;;;5061691;28;20029;-76
2024/01/28 02:32:10;;;;;;;28.90;12.07;;;2.20;99.90;;;;;;5070339;28;20435;-76
2024/01/28 02:34:36;;;;;;;27.35;11.48;;;2.20;99.90;;;;;;5054344;28;20401;-77
2024/01/28 02:37:01;;;;;;;30.38;10.40;;;2.20;99.90;;;;;;5061963;28;20048;-77
2024/01/28 02:39:27;;;;;;;25.10;10.90;;;2.20;99.90;;;;;;5065081;28;20093;-76
2024/01/28 02:41:53;;;;;;;26.25;10.52;;;2.10;99.90;;;;;;5068010;28;20024;-76
2024/01/28 02:44:19;;;;;;;27.13;10.35;;;2.10;99.90;;;;;;5054608;28;20032;-76
2024/01/28 02:46:44;;;;;;;26.77;11.40;;;2.10;99.90;;;;;;5054010;28;20491;-76
2024/01/28 02:49:10;;;;;;;29.52;10.95;;;2.00;99.90;;;;;;5052263;28;20103;-77
2024/01/28 02:51:35;;;;;;;23.92;10.77;;;2.00;99.90;;;;;;5055552;28;20032;-77
2024/01/28 02:54:02;;;;;;;21.17;10.57;;;2.00;99.90;;;;;;5066948;28;20025;-76
2024/01/28 02:56:27;;;;;;;29.58;11.52;;;2.00;99.90;;;;;;5063141;28;20047;-77
2024/01/28 02:58:54;;;;;;;23.70;10.95;;;2.00;99.90;;;;;;5052216;28;20048;-77
2024/01/28 03:01:20;;;;;;;26.92;10.88;;;2.00;99.90;;;;;;5051753;28;20025;-75
2024/01/28 03:03:45;;;;;;;25.55;10.75;;;1.90;99.90;;;;;;5055882;28;20186;-75
2024/01/28 03:06:11;;;;;;;27.48;10.85;;;2.00;99.90;;;;;;5051794;28;20111;-77
2024/01/28 03:08:36;;;;;;;21.50;9.88;;;2.00;99.90;;;;;;5055094;28;20032;-77
2024/01/28 03:11:02;;;;;;;28.75;10.20;;;2.00;99.90;;;;;;5068119;28;20028;-77
2024/01/28 03:13:28;;;;;;;23.48;10.40;;;2.00;99.90;;;;;;5055743;28;20017;-77
2024/01/28 03:15:55;;;;;;;26.40;9.25;;;2.00;99.90;;;;;;5054667;28;20142;-77
2024/01/28 03:18:21;;;;;;;23.20;9.82;;;2.00;99.90;;;;;;5065439;28;20143;-77
2024/01/28 03:20:47;;;;;;;21.13;10.13;;;2.00;99.90;;;;;;5065533;28;20032;-77
2024/01/28 03:23:14;;;;;;;28.70;10.10;;;2.00;99.90;;;;;;5065915;28;20040;-77
2024/01/28 03:25:39;;;;;;;25.92;10.43;;;2.10;99.90;;;;;;5059243;28;20027;-77
2024/01/28 03:28:06;;;;;;;25.83;10.13;;;2.10;99.90;;;;;;5069976;28;20536;-77
2024/01/28 03:30:32;;;;;;;19.35;9.05;;;2.10;99.90;;;;;;5055566;28;20025;-77
2024/01/28 03:32:58;;;;;;;22.13;9.35;;;2.10;99.90;;;;;;5069942;28;20017;-77
2024/01/28 03:35:24;;;;;;;26.20;9.85;;;2.10;99.90;;;;;;5058279;28;20107;-76
2024/01/28 03:37:50;;;;;;;22.55;9.63;;;2.10;99.90;;;;;;5058848;28;20095;-77
2024/01/28 03:40:16;;;;;;;24.23;9.95;;;2.00;99.90;;;;;;5067608;28;20431;-77
2024/01/28 03:42:41;;;;;;;29.67;9.93;;;2.10;99.90;;;;;;5055393;28;20029;-75
2024/01/28 03:45:09;;;;;;;23.77;8.77;;;2.00;99.90;;;;;;5058483;28;20033;-76
2024/01/28 03:47:38;;;;;;;21.73;9.38;;;2.10;99.90;;;;;;5061837;28;20025;-76
2024/01/28 03:50:04;;;;;;;21.10;9.00;;;2.00;99.90;;;;;;5062820;28;20448;-76
2024/01/28 03:52:30;;;;;;;19.15;8.73;;;2.00;99.90;;;;;;5053416;28;20473;-75
2024/01/28 03:54:55;;;;;;;22.50;8.75;;;2.00;99.90;;;;;;5066985;28;20032;-76
2024/01/28 03:57:21;;;;;;;24.17;9.23;;;2.00;99.90;;;;;;5069987;28;20472;-76
2024/01/28 03:59:47;;;;;;;20.83;9.15;;;2.00;99.90;;;;;;5072634;28;20100;-75
2024/01/28 04:02:14;;;;;;;20.10;8.77;;;2.00;99.90;;;;;;5058356;28;20052;-76
2024/01/28 04:04:40;;;;;;;21.75;8.82;;;2.00;99.90;;;;;;5062917;28;20010;-75
2024/01/28 04:07:05;;;;;;;16.95;8.18;;;2.00;99.90;;;;;;5052441;28;20013;-76
2024/01/28 04:09:32;;;;;;;20.98;9.15;;;2.00;99.90;;;;;;5053103;28;20028;-76
2024/01/28 04:11:59;;;;;;;25.77;8.60;;;1.90;99.90;;;;;;5068668;28;20694;-76
2024/01/28 04:14:24;;;;;;;23.80;9.45;;;1.90;99.90;;;;;;5063390;28;20035;-76
2024/01/28 04:16:50;;;;;;;22.30;9.23;;;1.90;99.90;;;;;;5050953;28;20080;-76
2024/01/28 04:19:16;;;;;;;23.42;8.65;;;1.90;99.90;;;;;;5070421;28;20055;-76
2024/01/28 04:21:41;;;;;;;22.10;10.02;;;1.90;99.90;;;;;;5056053;28;20049;-76
2024/01/28 04:24:07;;;;;;;21.52;9.13;;;1.90;99.90;;;;;;5064568;28;20056;-76
2024/01/28 04:26:33;;;;;;;25.75;9.63;;;1.90;99.90;;;;;;5071322;28;20025;-76
2024/01/28 04:28:59;;;;;;;22.73;8.40;;;1.90;99.90;;;;;;5064233;28;20111;-76
2024/01/28 04:31:29;;;;;;;23.63;9.43;;;1.90;99.90;;;;;;5065943;28;20032;-76
2024/01/28 04:33:55;;;;;;;20.48;8.38;;;1.90;99.90;;;;;;5051710;28;20029;-76
2024/01/28 04:36:21;;;;;;;22.63;8.85;;;2.00;99.90;;;;;;5053613;28;20070;-76
2024/01/28 04:38:47;;;;;;;19.10;8.02;;;1.90;99.90;;;;;;5054195;28;20029;-76
2024/01/28 04:41:13;;;;;;;21.45;8.23;;;1.90;99.90;;;;;;5054773;28;20415;-76
2024/01/28 04:43:39;;;;;;;17.90;8.13;;;2.00;99.90;;;;;;5052125;28;20120;-75
2024/01/28 04:46:05;;;;;;;18.83;8.38;;;2.00;99.90;;;;;;5052903;28;20094;-75
2024/01/28 04:48:30;;;;;;;18.10;7.50;;;2.00;99.90;;;;;;5065462;28;20063;-76
2024/01/28 04:50:56;;;;;;;19.88;8.50;;;2.00;99.90;;;;;;5060493;28;20092;-76
2024/01/28 04:53:22;;;;;;;18.48;8.18;;;2.00;99.90;;;;;;5051525;28;20025;-75
2024/01/28 04:55:48;;;;;;;22.63;8.13;;;2.00;99.90;;;;;;5061746;28;20024;-75
2024/01/28 04:58:13;;;;;;;25.02;8.35;;;2.00;99.90;;;;;;5067565;28;20395;-76
2024/01/28 05:00:39;;;;;;;21.42;8.70;;;2.00;99.90;;;;;;5068472;28;20019;-76
2024/01/28 05:03:05;;;;;;;18.65;7.97;;;2.00;99.90;;;;;;5069704;28;20479;-76
2024/01/28 05:05:30;;;;;;;21.60;8.40;;;2.00;99.90;;;;;;5066176;28;20017;-76
2024/01/28 05:07:56;;;;;;;17.40;8.05;;;2.00;99.90;;;;;;5058210;28;20087;-75
2024/01/28 05:10:22;;;;;;;18.98;7.97;;;2.00;99.90;;;;;;5049819;28;20159;-75
2024/01/28 05:12:48;;;;;;;15.20;7.82;;;2.00;99.90;;;;;;5052276;28;20436;-75
2024/01/28 05:15:17;;;;;;;18.30;7.63;;;2.00;99.90;;;;;;5052460;28;20047;-75
2024/01/28 05:17:44;;;;;;;21.35;8.77;;;2.00;99.90;;;;;;5059306;28;20104;-75
2024/01/28 05:20:11;;;;;;;20.58;8.15;;;2.00;99.90;;;;;;5052845;28;20052;-75
2024/01/28 05:22:39;;;;;;;20.38;7.82;;;2.00;99.90;;;;;;5059958;28;20029;-75
2024/01/28 05:25:05;;;;;;;16.20;7.50;;;2.00;99.90;;;;;;5062765;28;20020;-75
2024/01/28 05:27:31;;;;;;;18.02;7.22;;;2.00;99.90;;;;;;5055713;28;20027;-75
2024/01/28 05:29:58;;;;;;;17.90;7.50;;;2.00;99.90;;;;;;5069489;28;20028;-75
2024/01/28 05:32:26;;;;;;;15.80;7.60;;;2.00;99.90;;;;;;5054917;28;20048;-76
2024/01/28 05:34:51;;;;;;;21.52;7.93;;;2.00;99.90;;;;;;5065055;28;20024;-77
2024/01/28 05:37:17;;;;;;;20.05;8.60;;;2.00;99.90;;;;;;5062931;28;20024;-77
2024/01/28 05:39:43;;;;;;;13.38;7.18;;;2.00;99.90;;;;;;5066426;28;20033;-75
2024/01/28 05:42:09;;;;;;;24.00;8.27;;;2.00;99.90;;;;;;5061470;28;20048;-75
2024/01/28 05:44:35;;;;;;;19.88;8.02;;;2.00;99.90;;;;;;5061283;28;20017;-76
2024/01/28 05:47:00;;;;;;;20.88;8.30;;;2.00;99.90;;;;;;5059371;28;20502;-76
2024/01/28 05:49:26;;;;;;;17.52;7.57;;;2.00;99.90;;;;;;5058042;28;20035;-76
2024/01/28 05:51:51;;;;;;;16.90;7.35;;;1.90;99.90;;;;;;5068065;28;20495;-76
2024/01/28 05:54:17;;;;;;;19.23;7.85;;;1.90;99.90;;;;;;5051079;28;20102;-75
2024/01/28 05:56:43;;;;;;;13.55;7.03;;;1.90;99.90;;;;;;5052034;28;20505;-76
2024/01/28 05:59:08;;;;;;;18.67;7.32;;;1.90;99.90;;;;;;5059407;28;20027;-76
2024/01/28 06:01:34;;;;;;;18.92;8.55;;;1.90;99.90;;;;;;5053926;28;20070;-76
2024/01/28 06:04:00;;;;;;;18.05;7.85;;;1.90;99.90;;;;;;5051638;28;20111;-76
2024/01/28 06:06:25;;;;;;;14.27;7.72;;;1.90;99.90;;;;;;5063185;28;20021;-76
2024/01/28 06:08:51;;;;;;;22.15;8.07;;;1.90;99.90;;;;;;5064750;28;20031;-76
2024/01/28 06:11:16;;;;;;;17.90;7.90;;;1.90;99.90;;;;;;5069499;28;20578;-76
2024/01/28 06:13:42;;;;;;;17.88;8.10;;;1.90;99.90;;;;;;5063370;28;20075;-76
2024/01/28 06:16:08;;;;;;;21.85;7.97;;;1.90;99.90;;;;;;5050679;28;20021;-76
2024/01/28 06:18:37;;;;;;;21.83;8.00;;;1.90;99.90;;;;;;5048303;28;20104;-75
2024/01/28 06:21:03;;;;;;;17.40;7.82;;;1.80;99.90;;;;;;5064085;28;20133;-75
2024/01/28 06:23:28;;;;;;;16.40;7.57;;;1.80;99.90;;;;;;5060718;28;20502;-76
2024/01/28 06:25:54;;;;;;;17.42;7.47;;;1.80;99.90;;;;;;5055500;28;20025;-76
2024/01/28 06:28:19;;;;;;;18.48;7.20;;;1.80;99.90;;;;;;5054235;28;20025;-76
2024/01/28 06:30:45;;;;;;;17.65;7.80;;;1.80;99.90;;;;;;5054597;28;20116;-77
2024/01/28 06:33:12;;;;;;;17.52;7.28;;;1.80;99.90;;;;;;5053714;28;20021;-76
2024/01/28 06:35:37;;;;;;;15.52;7.78;;;1.80;99.90;;;;;;5061411;28;20020;-76
2024/01/28 06:38:03;;;;;;;16.33;7.55;;;1.80;99.90;;;;;;5067759;28;20369;-76
2024/01/28 06:40:29;;;;;;;16.33;7.38;;;1.80;99.90;;;;;;5051989;28;20214;-76
2024/01/28 06:42:54;;;;;;;17.08;7.70;;;1.80;99.90;;;;;;5062864;28;20491;-76
2024/01/28 06:45:20;;;;;;;14.07;7.28;;;1.80;99.90;;;;;;5054568;28;20029;-76
2024/01/28 06:47:46;;;;;;;18.08;7.40;;;1.80;99.90;;;;;;5057791;28;20029;-76
2024/01/28 06:50:11;;;;;;;13.88;7.40;;;1.80;99.90;;;;;;5054403;28;20044;-76
2024/01/28 06:52:37;;;;;;;15.52;7.18;;;1.80;99.90;;;;;;5057251;28;20033;-76
2024/01/28 06:55:04;;;;;;;14.85;7.22;;;1.70;99.90;;;;;;5051739;28;20017;-77
2024/01/28 06:57:30;;;;;;;15.30;7.22;;;1.80;99.90;;;;;;5052174;28;20047;-77
2024/01/28 06:59:56;;;;;;;16.23;7.13;;;1.70;99.90;;;;;;5061190;28;20027;-76
2024/01/28 07:02:24;;;;;;;15.63;6.72;;;1.70;99.90;;;;;;5062423;28;20029;-77
2024/01/28 07:04:49;;;;;;;16.23;7.40;;;1.70;99.90;;;;;;5053818;28;20031;-77
2024/01/28 07:07:15;;;;;;;16.13;6.88;;;1.70;99.90;;;;;;5050161;28;20029;-76
2024/01/28 07:09:41;;;;;;;16.02;7.10;;;1.70;99.90;;;;;;5051946;28;20030;-76
2024/01/28 07:12:08;;;;;;;17.10;7.18;;;1.80;99.90;;;;;;5051985;28;20056;-76
2024/01/28 07:14:34;;;;;;;14.48;7.47;;;1.70;99.90;;;;;;5058933;28;20055;-76
2024/01/28 07:16:59;;;;;;;16.95;7.18;;;1.70;99.90;;;;;;5066675;28;20398;-76
2024/01/28 07:19:25;;;;;;;14.98;6.63;;;1.70;99.90;;;;;;5050076;28;20049;-76
2024/01/28 07:21:51;;;;;;;17.05;7.30;;;1.70;99.90;;;;;;5054913;28;20021;-76
2024/01/28 07:24:17;;;;;;;14.02;6.68;;;1.70;99.90;;;;;;5054850;28;20041;-76
2024/01/28 07:26:43;;;;;;;15.38;6.60;;;1.70;99.90;;;;;;5055583;28;20063;-76
2024/01/28 07:29:09;;;;;;;19.63;7.32;;;1.70;99.90;;;;;;5063035;28;20037;-76
2024/01/28 07:31:35;;;;;;;21.15;7.53;;;1.70;99.90;;;;;;5050119;28;20032;-76
2024/01/28 07:34:03;;;;;;;13.45;6.60;;;1.70;99.90;;;;;;5051516;28;20024;-76
2024/01/28 07:36:30;;;;;;;14.77;6.35;;;1.70;99.90;;;;;;5060209;28;20419;-76
2024/01/28 07:38:56;;;;;;;14.88;7.00;;;1.80;99.90;;;;;;5059003;28;20078;-76
2024/01/28 07:41:22;;;;;;;15.05;6.45;;;1.80;99.90;;;;;;5055949;28;20082;-77
2024/01/28 07:43:47;;;;;;;16.33;6.82;;;1.80;99.90;;;;;;5053012;28;20526;-77
2024/01/28 07:46:13;;;;;;;17.33;7.25;;;1.70;99.90;;;;;;5049336;28;20118;-76
2024/01/28 07:48:39;;;;;;;15.07;6.65;;;1.70;99.90;;;;;;5048689;28;20021;-75
2024/01/28 07:51:05;;;;;;;12.52;6.18;;;1.70;99.90;;;;;;5064649;28;20089;-75
2024/01/28 07:53:31;;;;;;;21.13;6.65;;;1.70;99.90;;;;;;5052078;28;20017;-76
2024/01/28 07:55:57;;;;;;;12.75;6.40;;;1.70;99.90;;;;;;5049067;28;20084;-76
2024/01/28 07:58:22;;;;;;;10.25;6.43;;;1.70;99.90;;;;;;5058263;28;20090;-76
2024/01/28 08:00:48;;;;;;;17.88;6.85;;;1.70;99.90;;;;;;5058742;28;20036;-76
2024/01/28 08:03:13;;;;;;;16.63;6.40;;;1.70;99.90;;;;;;5054723;28;20029;-76
2024/01/28 08:05:40;;;;;;;16.88;6.40;;;1.80;99.90;;;;;;5061010;28;20506;-76
2024/01/28 08:08:06;;;;;;;15.63;6.25;;;1.80;99.90;;;;;;5050834;28;20045;-76
2024/01/28 08:10:32;;;;;;;13.60;5.85;;;1.80;99.90;;;;;;5052607;28;20108;-76
2024/01/28 08:12:57;;;;;;;14.20;6.00;;;1.90;99.90;;;;;;5062969;28;20116;-76
2024/01/28 08:15:23;;;;;;;13.25;5.75;;;1.90;99.90;;;;;;5051787;28;20064;-76
2024/01/28 08:17:50;;;;;;;10.88;5.60;;;1.90;99.90;;;;;;5053746;28;20032;-76
2024/01/28 08:20:16;;;;;;;13.40;7.03;;;2.00;99.90;;;;;;5052977;28;20063;-76
2024/01/28 08:22:42;;;;;;;16.00;6.45;;;2.00;99.90;;;;;;5053416;28;20029;-76
2024/01/28 08:25:08;;;;;;;12.23;6.03;;;2.10;99.90;;;;;;5060914;28;20024;-76
2024/01/28 08:27:34;;;;;;;14.77;5.82;;;2.10;99.90;;;;;;5062854;28;20103;-76
2024/01/28 08:29:59;;;;;;;12.18;5.95;;;2.10;99.90;;;;;;5061757;28;20108;-76
2024/01/28 08:32:25;;;;;;;13.82;5.80;;;2.20;99.90;;;;;;5054024;28;20056;-76
2024/01/28 08:34:51;;;;;;;13.13;5.75;;;2.20;99.90;;;;;;5052497;28;20079;-76
2024/01/28 08:37:17;;;;;;;14.38;5.75;;;2.20;99.90;;;;;;5055280;28;20244;-76
2024/01/28 08:39:44;;;;;;;11.07;5.32;;;2.30;99.90;;;;;;5052447;28;20406;-76
2024/01/28 08:42:09;;;;;;;13.27;6.00;;;2.30;99.90;;;;;;5057994;28;20472;-76
2024/01/28 08:44:35;;;;;;;11.85;5.40;;;2.30;99.90;;;;;;5055564;28;20032;-76
2024/01/28 08:47:01;;;;;;;11.82;5.32;;;2.40;99.90;;;;;;5067503;28;20017;-76
2024/01/28 08:49:27;;;;;;;11.85;5.25;;;2.40;99.90;;;;;;5056569;28;20024;-75
2024/01/28 08:51:52;;;;;;;12.82;5.20;;;2.50;99.90;;;;;;5064446;28;20052;-76
2024/01/28 08:54:18;;;;;;;13.45;5.80;;;2.50;99.90;;;;;;5058333;28;20098;-76
2024/01/28 08:56:44;;;;;;;11.18;5.15;;;2.60;99.90;;;;;;5059490;28;20021;-76
2024/01/28 08:59:09;;;;;;;9.95;5.20;;;2.60;99.90;;;;;;5056157;28;20461;-76
2024/01/28 09:01:35;;;;;;;11.82;5.45;;;2.60;99.90;;;;;;5050845;28;20029;-76
2024/01/28 09:04:00;;;;;;;14.15;6.40;;;2.70;99.90;;;;;;5048719;28;20044;-76
2024/01/28 09:06:26;;;;;;;14.50;5.60;;;2.80;99.90;;;;;;5054157;28;20048;-76
2024/01/28 09:08:52;;;;;;;9.07;4.85;;;2.90;99.90;;;;;;5055974;28;20056;-76
2024/01/28 09:11:17;;;;;;;9.95;4.85;;;3.00;99.90;;;;;;5057539;28;20103;-76
2024/01/28 09:13:43;;;;;;;14.88;5.80;;;3.10;99.90;;;;;;5061157;28;20723;-76
2024/01/28 09:16:08;;;;;;;10.85;5.15;;;3.20;99.90;;;;;;5053705;28;20253;-76
2024/01/28 09:18:34;;;;;;;12.75;5.65;;;3.20;99.90;;;;;;5052836;28;20021;-76
2024/01/28 09:21:00;;;;;;;11.02;5.40;;;3.40;99.90;;;;;;5059354;28;20052;-76
2024/01/28 09:23:25;;;;;;;12.15;5.18;;;3.40;99.90;;;;;;5052738;28;20033;-76
2024/01/28 09:25:51;;;;;;;11.63;5.53;;;3.50;99.90;;;;;;5056542;28;20020;-76
2024/01/28 09:28:19;;;;;;;10.65;5.00;;;3.60;99.90;;;;;;5055011;28;20064;-76
2024/01/28 09:30:44;;;;;;;11.55;5.30;;;3.70;99.90;;;;;;5053811;28;20021;-75
2024/01/28 09:33:13;;;;;;;9.40;4.90;;;3.80;99.90;;;;;;5060248;28;20029;-75
2024/01/28 09:35:43;;;;;;;9.70;5.70;;;3.90;99.90;;;;;;5051139;28;20025;-75
2024/01/28 09:38:09;;;;;;;10.90;5.25;;;4.00;99.90;;;;;;5064350;28;20037;-76
2024/01/28 09:40:35;;;;;;;11.55;5.60;;;4.10;99.90;;;;;;5062108;28;20803;-75
2024/01/28 09:43:09;;;;;;;12.32;5.35;;;4.20;99.90;;;;;;5051501;28;20365;-75
2024/01/28 09:45:35;;;;;;;10.45;5.18;;;4.30;99.90;;;;;;5058394;28;20035;-75
2024/01/28 09:48:01;;;;;;;9.77;5.22;;;4.40;99.90;;;;;;5056591;28;20029;-75
2024/01/28 09:50:27;;;;;;;12.45;5.00;;;4.40;99.90;;;;;;5055233;28;20021;-74
2024/01/28 09:52:53;;;;;;;10.30;5.45;;;4.50;99.90;;;;;;5053045;28;20482;-74
2024/01/28 09:55:19;;;;;;;9.68;4.88;;;4.60;99.90;;;;;;5056114;28;20028;-74
2024/01/28 09:57:45;;;;;;;12.18;5.15;;;4.70;99.90;;;;;;5053134;28;20017;-74
2024/01/28 10:00:12;;;;;;;9.00;4.55;;;4.80;99.90;;;;;;5060501;28;20761;-74
2024/01/28 10:02:39;;;;;;;12.65;5.45;;;4.90;99.90;;;;;;5062863;28;20028;-74
2024/01/28 10:05:10;;;;;;;8.68;4.45;;;5.00;99.90;;;;;;5049948;28;20111;-74
2024/01/28 10:07:50;;;;;;;8.68;4.60;;;5.10;99.90;;;;;;5058742;28;20036;-74
2024/01/28 10:10:17;;;;;;;14.25;4.93;;;5.20;99.90;;;;;;5058883;28;20029;-74
2024/01/28 10:12:45;;;;;;;8.95;4.63;;;5.20;99.90;;;;;;5066930;28;20424;-74
2024/01/28 10:15:15;;;;;;;12.73;4.78;;;5.30;99.90;;;;;;5062250;28;20020;-74
2024/01/28 10:17:46;;;;;;;10.82;4.78;;;5.40;99.90;;;;;;5058459;28;20020;-74
2024/01/28 10:20:12;;;;;;;9.90;4.93;;;5.50;99.90;;;;;;5056460;28;20068;-74
2024/01/28 10:22:38;;;;;;;11.30;4.85;;;5.60;99.90;;;;;;5069605;28;20013;-74
2024/01/28 10:25:04;;;;;;;14.18;4.47;;;5.80;99.90;;;;;;5050842;28;20032;-74
2024/01/28 10:27:30;;;;;;;11.15;4.55;;;5.90;99.90;;;;;;5053865;28;20410;-75
2024/01/28 10:29:56;;;;;;;6.43;4.22;;;5.90;99.90;;;;;;5068343;28;20083;-75
2024/01/28 10:32:22;;;;;;;13.85;4.18;;;6.00;99.90;;;;;;5052417;28;20771;-75
2024/01/28 10:34:47;;;;;;;9.73;3.60;;;6.10;99.90;;;;;;5049546;28;20013;-75
2024/01/28 10:37:14;;;;;;;7.90;3.92;;;6.20;99.90;;;;;;5062432;28;20025;-75
2024/01/28 10:39:44;;;;;;;9.10;4.10;;;6.20;99.90;;;;;;5056830;28;20042;-75
2024/01/28 10:42:15;;;;;;;7.00;4.07;;;6.30;99.90;;;;;;5056303;28;20083;-75
2024/01/28 10:44:50;;;;;;;6.03;3.65;;;6.40;99.90;;;;;;5065506;28;20032;-75
2024/01/28 10:47:17;;;;;;;8.93;3.95;;;6.50;99.90;;;;;;5052129;28;20111;-75
2024/01/28 10:49:47;;;;;;;5.50;3.45;;;6.60;99.90;;;;;;5053487;28;20484;-74
2024/01/28 10:52:15;;;;;;;9.10;4.47;;;6.70;99.90;;;;;;5052027;28;20078;-74
2024/01/28 10:54:42;;;;;;;8.50;3.65;;;6.80;99.90;;;;;;5051166;28;20043;-74
2024/01/28 10:57:09;;;;;;;8.32;4.10;;;6.90;99.90;;;;;;5050770;28;20491;-74
2024/01/28 10:59:37;;;;;;;7.93;3.80;;;7.00;99.90;;;;;;5050136;28;20029;-74
2024/01/28 11:02:04;;;;;;;7.40;3.90;;;7.00;99.90;;;;;;5060722;28;20025;-74
2024/01/28 11:04:32;;;;;;;8.65;3.80;;;7.10;99.90;;;;;;5062026;28;20123;-74
2024/01/28 11:06:57;;;;;;;8.35;3.90;;;7.20;99.90;;;;;;5064423;28;20548;-75
2024/01/28 11:09:23;;;;;;;7.55;3.88;;;7.30;99.90;;;;;;5055201;28;20029;-74
2024/01/28 11:11:49;;;;;;;7.65;3.20;;;7.40;99.90;;;;;;5050679;28;20053;-75
2024/01/28 11:14:14;;;;;;;13.40;3.65;;;7.50;99.90;;;;;;5051162;28;20021;-75
2024/01/28 11:16:40;;;;;;;7.28;3.60;;;7.60;99.90;;;;;;5054682;28;20424;-74
2024/01/28 11:19:07;;;;;;;8.93;3.70;;;7.60;99.90;;;;;;5048216;28;20091;-74
2024/01/28 11:21:34;;;;;;;10.05;3.95;;;7.70;99.90;;;;;;5047955;28;20055;-75
2024/01/28 11:24:04;;;;;;;9.93;3.67;;;7.80;99.90;;;;;;5064436;28;20020;-75
2024/01/28 11:26:36;;;;;;;6.72;3.58;;;7.80;99.90;;;;;;5056610;28;20032;-75
2024/01/28 11:29:05;;;;;;;4.85;3.42;;;7.80;99.90;;;;;;5057347;28;20121;-75
2024/01/28 11:31:38;;;;;;;7.68;3.80;;;7.90;99.90;;;;;;5067116;28;20104;-74
2024/01/28 11:34:21;;;;;;;7.72;3.70;;;8.00;99.90;;;;;;5051026;28;20025;-75
2024/01/28 11:36:50;;;;;;;6.97;3.58;;;8.10;99.90;;;;;;5049964;28;20020;-76
2024/01/28 11:39:16;;;;;;;5.10;3.20;;;8.10;99.90;;;;;;5050857;28;20110;-76
2024/01/28 11:41:52;;;;;;;9.27;3.65;;;8.10;99.90;;;;;;5054128;28;20086;-74
2024/01/28 11:44:17;;;;;;;9.45;3.47;;;8.20;99.90;;;;;;5058375;28;20035;-74
2024/01/28 11:46:44;;;;;;;7.85;3.50;;;8.20;99.90;;;;;;5055351;28;20357;-74
2024/01/28 11:49:09;;;;;;;7.28;3.45;;;8.20;99.90;;;;;;5052882;28;20053;-75
2024/01/28 11:51:46;;;;;;;5.68;3.47;;;8.20;99.90;;;;;;5066928;28;20431;-76
2024/01/28 11:54:11;;;;;;;7.68;3.38;;;8.30;99.90;;;;;;5053640;28;20429;-74
2024/01/28 11:56:37;;;;;;;10.95;3.35;;;8.30;99.90;;;;;;5053006;28;20028;-76
2024/01/28 11:59:03;;;;;;;6.57;3.45;;;8.30;99.90;;;;;;5057200;28;20345;-74
2024/01/28 12:01:29;;;;;;;7.30;3.42;;;8.40;99.90;;;;;;5064803;28;20027;-75
2024/01/28 12:03:55;;;;;;;7.10;2.92;;;8.40;99.90;;;;;;5072247;28;20399;-75
2024/01/28 12:06:27;;;;;;;6.90;3.67;;;8.50;99.90;;;;;;5057577;28;20495;-76
2024/01/28 12:08:53;;;;;;;9.88;3.70;;;8.50;99.90;;;;;;5055439;28;20468;-74
2024/01/28 12:11:24;;;;;;;7.18;3.60;;;8.50;99.90;;;;;;5056029;28;20083;-74
2024/01/28 12:13:50;;;;;;;8.35;4.00;;;8.60;99.90;;;;;;5054657;28;20359;-75
2024/01/28 12:16:20;;;;;;;7.68;3.80;;;8.60;99.90;;;;;;5059081;28;20050;-74
2024/01/28 12:18:46;;;;;;;8.65;3.67;;;8.70;99.90;;;;;;5072483;28;20076;-74
2024/01/28 12:21:20;;;;;;;6.38;3.63;;;8.60;99.90;;;;;;5076722;28;20059;-74
2024/01/28 12:23:56;;;;;;;9.15;3.90;;;8.70;99.90;;;;;;5082668;28;20474;-76
2024/01/28 12:26:23;;;;;;;8.55;3.83;;;8.70;99.90;;;;;;5069107;28;20023;-75
2024/01/28 12:28:51;;;;;;;7.97;3.88;;;8.70;99.90;;;;;;5070778;28;20028;-75
2024/01/28 12:31:19;;;;;;;11.93;4.28;;;8.80;99.90;;;;;;5078579;28;20020;-75
2024/01/28 12:33:45;;;;;;;8.65;4.18;;;8.80;99.90;;;;;;5078396;28;20028;-75
2024/01/28 12:36:11;;;;;;;9.48;4.00;;;8.90;99.90;;;;;;5069226;28;20024;-75
2024/01/28 12:38:38;;;;;;;7.65;3.60;;;8.90;99.90;;;;;;5063810;28;20040;-75
2024/01/28 12:41:04;;;;;;;6.28;3.80;;;8.90;99.90;;;;;;5071357;28;20032;-76